Time;durP1;ratioP1;P1;durP2;ratioP2;P2;SDS_P1;SDS_P2;PMS_P1;PMS_P2;Temp;Humidity;BMP_temperature;BMP_pressure;BME280_temperature;BME280_humidity;BME280_pressure;Samples;Min_cycle;Max_cycle;Signal;HPM_P1;HPM_P2
2023/01/14 00:01:53;;;;;;;;;;;7.90;99.90;;;;;;5143594;27;19959;-41
2023/01/14 00:04:19;;;;;;;;;;;7.90;99.90;;;;;;5153054;27;19907;-42
2023/01/14 00:06:44;;;;;;;;;;;8.00;99.90;;;;;;5149988;27;19915;-42
2023/01/14 00:09:11;;;;;;;;;;;8.00;99.90;;;;;;5152982;27;19911;-41
2023/01/14 00:11:46;;;;;;;;;;;8.00;99.90;;;;;;5152564;27;19911;-42
2023/01/14 00:14:13;;;;;;;;;;;8.00;99.90;;;;;;5152747;27;19964;-42
2023/01/14 00:16:39;;;;;;;;;;;8.00;99.90;;;;;;5152436;27;20349;-41
2023/01/14 00:19:05;;;;;;;;;;;8.00;99.90;;;;;;5149105;27;20346;-42
2023/01/14 00:21:30;;;;;;;;;;;8.00;99.90;;;;;;5124353;27;19973;-41
2023/01/14 00:23:56;;;;;;;;;;;8.00;99.90;;;;;;5133182;27;19918;-42
2023/01/14 00:26:22;;;;;;;;;;;8.00;99.90;;;;;;5136590;27;19930;-42
2023/01/14 00:28:48;;;;;;;;;;;7.90;99.90;;;;;;5136577;27;20011;-41
2023/01/14 00:31:15;;;;;;;;;;;7.90;99.90;;;;;;5135660;27;19915;-41
2023/01/14 00:33:42;;;;;;;;;;;7.90;99.90;;;;;;5127635;27;19914;-41
2023/01/14 00:36:09;;;;;;;;;;;7.90;99.90;;;;;;5115898;28;19919;-41
2023/01/14 00:38:34;;;;;;;;;;;7.80;99.90;;;;;;5115168;28;19955;-41
2023/01/14 00:41:10;;;;;;;;;;;7.80;99.90;;;;;;5115785;28;19912;-41
2023/01/14 00:43:38;;;;;;;;;;;7.80;99.90;;;;;;5115867;28;19912;-40
2023/01/14 00:46:07;;;;;;;;;;;7.80;99.90;;;;;;5121994;27;19912;-41
2023/01/14 00:48:33;;;;;;;;;;;7.80;99.90;;;;;;5133360;27;19961;-41
2023/01/14 00:50:58;;;;;;;;;;;7.80;99.90;;;;;;5146731;27;19940;-42
2023/01/14 00:53:24;;;;;;;;;;;7.80;99.90;;;;;;5135171;27;19946;-43
2023/01/14 00:55:49;;;;;;;;;;;7.80;99.90;;;;;;5143631;27;19919;-41
2023/01/14 00:58:15;;;;;;;;;;;7.90;99.90;;;;;;5156350;27;19919;-41
2023/01/14 01:00:40;;;;;;;;;;;7.90;99.90;;;;;;5155304;27;19911;-44
2023/01/14 01:03:06;;;;;;;;;;;7.90;99.90;;;;;;5152854;27;19998;-42
2023/01/14 01:05:35;;;;;;;;;;;7.80;99.90;;;;;;5135688;27;20381;-41
2023/01/14 01:08:01;;;;;;;;;;;7.80;99.90;;;;;;5135907;27;20230;-41
2023/01/14 01:10:27;;;;;;;;;;;7.80;99.90;;;;;;5135838;27;19919;-41
2023/01/14 01:12:52;;;;;;;;;;;7.80;99.90;;;;;;5144806;27;19915;-42
2023/01/14 01:15:18;;;;;;;;;;;7.80;99.90;;;;;;5156405;27;19960;-42
2023/01/14 01:17:43;;;;;;;;;;;7.80;99.90;;;;;;5154943;27;19919;-42
2023/01/14 01:20:09;;;;;;;;;;;7.70;99.90;;;;;;5114196;27;19986;-43
2023/01/14 01:22:34;;;;;;;;;;;7.70;99.90;;;;;;5134318;27;19915;-42
2023/01/14 01:25:00;;;;;;;;;;;7.70;99.90;;;;;;5135309;27;19907;-41
2023/01/14 01:27:25;;;;;;;;;;;7.60;99.90;;;;;;5134259;27;19918;-42
2023/01/14 01:29:51;;;;;;;;;;;7.60;99.90;;;;;;5134794;27;19907;-41
2023/01/14 01:32:16;;;;;;;;;;;7.60;99.90;;;;;;5134208;27;19915;-41
2023/01/14 01:34:42;;;;;;;;;;;7.60;99.90;;;;;;5134589;27;19919;-42
2023/01/14 01:37:07;;;;;;;;;;;7.60;99.90;;;;;;5146251;27;20357;-41
2023/01/14 01:39:32;;;;;;;;;;;7.70;99.90;;;;;;5142145;27;19918;-42
2023/01/14 01:41:58;;;;;;;;;;;7.70;99.90;;;;;;5127282;27;19952;-41
2023/01/14 01:44:23;;;;;;;;;;;7.70;99.90;;;;;;5114684;28;20389;-42
2023/01/14 01:46:49;;;;;;;;;;;7.70;99.90;;;;;;5114621;28;19908;-41
2023/01/14 01:49:16;;;;;;;;;;;7.70;99.90;;;;;;5113823;28;19908;-42
2023/01/14 01:51:51;;;;;;;;;;;7.80;99.90;;;;;;5120910;27;20183;-42
2023/01/14 01:54:19;;;;;;;;;;;7.80;99.90;;;;;;5134346;27;19923;-43
2023/01/14 01:56:46;;;;;;;;;;;7.80;99.90;;;;;;5134250;27;19922;-41
2023/01/14 01:59:15;;;;;;;;;;;7.80;99.90;;;;;;5134613;27;19912;-43
2023/01/14 02:01:41;;;;;;;;;;;7.80;99.90;;;;;;5134588;27;20323;-42
2023/01/14 02:04:06;;;;;;;;;;;7.80;99.90;;;;;;5133984;27;20537;-42
2023/01/14 02:06:32;;;;;;;;;;;7.80;99.90;;;;;;5147393;27;19915;-42
2023/01/14 02:08:58;;;;;;;;;;;7.80;99.90;;;;;;5153557;27;19919;-41
2023/01/14 02:11:38;;;;;;;;;;;7.80;99.90;;;;;;5154782;27;20281;-43
2023/01/14 02:14:04;;;;;;;;;;;7.80;99.90;;;;;;5145295;27;19911;-42
2023/01/14 02:16:32;;;;;;;;;;;7.90;99.90;;;;;;5133768;27;19941;-42
2023/01/14 02:19:15;;;;;;;;;;;7.80;99.90;;;;;;5134400;27;20362;-42
2023/01/14 02:21:45;;;;;;;;;;;7.80;99.90;;;;;;5134493;27;19942;-42
2023/01/14 02:24:22;;;;;;;;;;;7.90;99.90;;;;;;5133721;27;19918;-42
2023/01/14 02:27:00;;;;;;;;;;;7.80;99.90;;;;;;5154552;27;19911;-42
2023/01/14 02:29:32;;;;;;;;;;;7.80;99.90;;;;;;5154023;27;19954;-43
2023/01/14 02:32:21;;;;;;;;;;;7.90;99.90;;;;;;5153391;27;19937;-43
2023/01/14 02:34:58;;;;;;;;;;;7.80;99.90;;;;;;5118397;27;19912;-43
2023/01/14 02:37:27;;;;;;;;;;;7.90;99.90;;;;;;5133365;27;20007;-43
2023/01/14 02:40:05;;;;;;;;;;;7.90;99.90;;;;;;5133989;27;20548;-42
2023/01/14 02:45:18;;;;;;;;;;;7.80;99.90;;;;;;5133745;27;19915;-44
2023/01/14 02:47:45;;;;;;;;;;;7.90;99.90;;;;;;5133885;27;19911;-42
2023/01/14 02:50:11;;;;;;;;;;;7.90;99.90;;;;;;5133716;27;19911;-43
2023/01/14 02:52:37;;;;;;;;;;;7.90;99.90;;;;;;5132843;27;20354;-42
2023/01/14 02:55:03;;;;;;;;;;;7.90;99.90;;;;;;5134653;27;20021;-42
2023/01/14 02:57:54;;;;;;;;;;;7.90;99.90;;;;;;5130505;27;19919;-42
2023/01/14 03:00:32;;;;;;;;;;;7.90;99.90;;;;;;5133061;27;19918;-42
2023/01/14 03:03:16;;;;;;;;;;;7.90;99.90;;;;;;5133835;27;19908;-42
2023/01/14 03:06:00;;;;;;;;;;;7.90;99.90;;;;;;5132795;27;20028;-42
2023/01/14 03:08:34;;;;;;;;;;;7.80;99.90;;;;;;5133596;27;20013;-42
2023/01/14 03:11:02;;;;;;;;;;;7.80;99.90;;;;;;5133792;27;19912;-42
2023/01/14 03:13:30;;;;;;;;;;;7.70;99.90;;;;;;5136669;27;20270;-41
2023/01/14 03:16:14;;;;;;;;;;;7.70;99.90;;;;;;5133223;27;19915;-42
2023/01/14 03:18:40;;;;;;;;;;;7.60;99.90;;;;;;5125765;27;19911;-42
2023/01/14 03:21:09;;;;;;;;;;;7.50;99.90;;;;;;5122638;27;19915;-42
2023/01/14 03:23:37;;;;;;;;;;;7.50;99.90;;;;;;5133530;27;19918;-43
2023/01/14 03:26:06;;;;;;;;;;;7.50;99.90;;;;;;5133594;28;19954;-42
2023/01/14 03:28:34;;;;;;;;;;;7.40;99.90;;;;;;5132617;27;20353;-42
2023/01/14 03:31:02;;;;;;;;;;;7.30;99.90;;;;;;5140504;27;19912;-41
2023/01/14 03:33:33;;;;;;;;;;;7.30;99.90;;;;;;5132846;27;19908;-42
2023/01/14 03:35:59;;;;;;;;;;;7.20;99.90;;;;;;5148767;27;19912;-41
2023/01/14 03:38:30;;;;;;;;;;;7.10;99.90;;;;;;5153412;27;19918;-42
2023/01/14 03:40:57;;;;;;;;;;;7.00;99.90;;;;;;5153205;27;19911;-42
2023/01/14 03:43:27;;;;;;;;;;;7.00;99.90;;;;;;5154225;27;19907;-42
2023/01/14 03:45:53;;;;;;;;;;;7.00;99.90;;;;;;5142395;27;19942;-42
2023/01/14 03:48:19;;;;;;;;;;;7.00;99.90;;;;;;5132316;27;19958;-42
2023/01/14 03:50:44;;;;;;;;;;;6.90;99.90;;;;;;5133375;28;20290;-41
2023/01/14 03:53:13;;;;;;;;;;;6.90;99.90;;;;;;5137896;27;19919;-42
2023/01/14 03:55:50;;;;;;;;;;;6.80;99.90;;;;;;5155528;27;19919;-41
2023/01/14 03:58:16;;;;;;;;;;;6.70;99.90;;;;;;5155793;27;19983;-41
2023/01/14 04:00:48;;;;;;;;;;;6.70;99.90;;;;;;5137095;27;20327;-42
2023/01/14 04:03:14;;;;;;;;;;;6.70;99.90;;;;;;5138052;27;19993;-42
2023/01/14 04:05:40;;;;;;;;;;;6.60;99.90;;;;;;5157563;27;19918;-41
2023/01/14 04:08:06;;;;;;;;;;;6.60;99.90;;;;;;5157812;27;19915;-41
2023/01/14 04:10:31;;;;;;;;;;;6.60;99.90;;;;;;5155344;27;19942;-41
2023/01/14 04:15:41;;;;;;;;;;;6.60;99.90;;;;;;5120481;27;19918;-42
2023/01/14 04:18:06;;;;;;;;;;;6.60;99.90;;;;;;5136507;27;19920;-42
2023/01/14 04:20:32;;;;;;;;;;;6.60;99.90;;;;;;5136825;27;20323;-42
2023/01/14 04:22:57;;;;;;;;;;;6.70;99.90;;;;;;5137018;27;19912;-43
2023/01/14 04:25:23;;;;;;;;;;;6.70;99.90;;;;;;5136783;27;19908;-43
2023/01/14 04:27:49;;;;;;;;;;;6.80;99.90;;;;;;5136644;27;19908;-42
2023/01/14 04:30:14;;;;;;;;;;;6.80;99.90;;;;;;5135514;27;19941;-43
2023/01/14 04:32:40;;;;;;;;;;;6.80;99.90;;;;;;5136491;27;19911;-41
2023/01/14 04:35:05;;;;;;;;;;;6.80;99.90;;;;;;5152873;27;20454;-41
2023/01/14 04:37:31;;;;;;;;;;;6.70;99.90;;;;;;5156588;27;19922;-42
2023/01/14 04:39:56;;;;;;;;;;;6.70;99.90;;;;;;5157202;27;19908;-42
2023/01/14 04:42:28;;;;;;;;;;;6.60;99.90;;;;;;5156299;27;19911;-42
2023/01/14 04:44:55;;;;;;;;;;;6.60;99.90;;;;;;5156637;27;20001;-43
2023/01/14 04:47:20;;;;;;;;;;;6.60;99.90;;;;;;5153481;27;19911;-41
2023/01/14 04:49:46;;;;;;;;;;;6.60;99.90;;;;;;5135985;27;19911;-42
2023/01/14 04:52:11;;;;;;;;;;;6.50;99.90;;;;;;5135426;27;19939;-41
2023/01/14 04:54:37;;;;;;;;;;;6.50;99.90;;;;;;5154031;27;20389;-42
2023/01/14 04:57:03;;;;;;;;;;;6.50;99.90;;;;;;5156842;27;19915;-42
2023/01/14 04:59:29;;;;;;;;;;;6.50;99.90;;;;;;5153732;27;19911;-42
2023/01/14 05:01:54;;;;;;;;;;;6.50;99.90;;;;;;5156837;27;19914;-42
2023/01/14 05:04:20;;;;;;;;;;;6.50;99.90;;;;;;5156371;27;19914;-43
2023/01/14 05:06:45;;;;;;;;;;;6.40;99.90;;;;;;5155194;27;20006;-42
2023/01/14 05:09:11;;;;;;;;;;;6.40;99.90;;;;;;5155354;27;19915;-42
2023/01/14 05:11:36;;;;;;;;;;;6.40;99.90;;;;;;5156650;27;19907;-42
2023/01/14 05:14:02;;;;;;;;;;;6.40;99.90;;;;;;5153766;27;19907;-43
2023/01/14 05:16:27;;;;;;;;;;;6.40;99.90;;;;;;5135521;27;19972;-44
2023/01/14 05:18:53;;;;;;;;;;;6.40;99.90;;;;;;5134550;27;20304;-42
2023/01/14 05:21:18;;;;;;;;;;;6.30;99.90;;;;;;5134076;27;19964;-42
2023/01/14 05:23:44;;;;;;;;;;;6.30;99.90;;;;;;5115095;28;19958;-42
2023/01/14 05:26:10;;;;;;;;;;;6.40;99.90;;;;;;5149158;27;19911;-42
2023/01/14 05:28:36;;;;;;;;;;;6.30;99.90;;;;;;5155010;27;19915;-43
2023/01/14 05:31:02;;;;;;;;;;;6.30;99.90;;;;;;5155020;27;19969;-42
2023/01/14 05:33:27;;;;;;;;;;;6.30;99.90;;;;;;5154445;27;20375;-42
2023/01/14 05:35:53;;;;;;;;;;;6.30;99.90;;;;;;5142261;27;20010;-42
2023/01/14 05:38:19;;;;;;;;;;;6.30;99.90;;;;;;5134840;27;19911;-42
2023/01/14 05:40:44;;;;;;;;;;;6.30;99.90;;;;;;5134422;27;19917;-42
2023/01/14 05:45:54;;;;;;;;;;;6.30;99.90;;;;;;5135686;27;20020;-43
2023/01/14 05:48:21;;;;;;;;;;;6.30;99.90;;;;;;5134392;27;20377;-43
2023/01/14 05:50:53;;;;;;;;;;;6.30;99.90;;;;;;5141640;27;20353;-43
2023/01/14 05:53:20;;;;;;;;;;;6.30;99.90;;;;;;5155774;27;19907;-42
2023/01/14 05:55:45;;;;;;;;;;;6.30;99.90;;;;;;5154670;27;19923;-43
2023/01/14 05:58:11;;;;;;;;;;;6.30;99.90;;;;;;5155419;27;20046;-42
2023/01/14 06:06:28;;;;;;;;;;;6.30;99.90;;;;;;5136953;27;20039;-42
2023/01/14 06:08:57;;;;;;;;;;;6.30;99.90;;;;;;5133112;27;19999;-43
2023/01/14 06:11:24;;;;;;;;;;;6.20;99.90;;;;;;5116372;27;20329;-42
2023/01/14 06:13:50;;;;;;;;;;;6.20;99.90;;;;;;5134583;27;19911;-42
2023/01/14 06:16:16;;;;;;;;;;;6.20;99.90;;;;;;5133455;27;19919;-42
2023/01/14 06:18:42;;;;;;;;;;;6.20;99.90;;;;;;5148749;27;20285;-43
2023/01/14 06:21:21;;;;;;;;;;;6.10;99.90;;;;;;5135919;27;19923;-42
2023/01/14 06:23:46;;;;;;;;;;;6.10;99.90;;;;;;5154466;27;19954;-43
2023/01/14 06:26:13;;;;;;;;;;;6.10;99.90;;;;;;5149469;27;19950;-42
2023/01/14 06:28:39;;;;;;;;;;;6.10;99.90;;;;;;5134406;27;19961;-43
2023/01/14 06:31:12;;;;;;;;;;;6.10;99.90;;;;;;5133353;27;19911;-43
2023/01/14 06:33:38;;;;;;;;;;;6.10;99.90;;;;;;5133958;27;19912;-43
2023/01/14 06:36:04;;;;;;;;;;;6.10;99.90;;;;;;5134012;27;20022;-42
2023/01/14 06:38:30;;;;;;;;;;;6.10;99.90;;;;;;5133645;27;20001;-42
2023/01/14 06:40:59;;;;;;;;;;;6.10;99.90;;;;;;5133956;27;19915;-43
2023/01/14 06:43:24;;;;;;;;;;;6.10;99.90;;;;;;5134471;27;19998;-44
2023/01/14 06:45:54;;;;;;;;;;;6.10;99.90;;;;;;5134082;27;20387;-42
2023/01/14 06:48:20;;;;;;;;;;;6.10;99.90;;;;;;5143173;27;19915;-41
2023/01/14 06:50:45;;;;;;;;;;;6.10;99.90;;;;;;5151984;27;19918;-42
2023/01/14 06:53:11;;;;;;;;;;;6.10;99.90;;;;;;5154204;27;20007;-42
2023/01/14 06:55:36;;;;;;;;;;;6.10;99.90;;;;;;5150221;27;19927;-43
2023/01/14 06:58:01;;;;;;;;;;;6.10;99.90;;;;;;5132353;27;19967;-42
2023/01/14 07:00:27;;;;;;;;;;;6.10;99.90;;;;;;5134560;27;20388;-42
2023/01/14 07:02:52;;;;;;;;;;;6.10;99.90;;;;;;5128224;27;19911;-42
2023/01/14 07:05:18;;;;;;;;;;;6.10;99.90;;;;;;5119088;27;19915;-43
2023/01/14 07:07:44;;;;;;;;;;;6.10;99.90;;;;;;5133831;27;20396;-43
2023/01/14 07:10:10;;;;;;;;;;;6.10;99.90;;;;;;5138951;27;19919;-42
2023/01/14 07:12:35;;;;;;;;;;;6.20;99.90;;;;;;5153627;27;20290;-43
2023/01/14 07:15:01;;;;;;;;;;;6.20;99.90;;;;;;5152614;27;19911;-42
2023/01/14 07:17:26;;;;;;;;;;;6.20;99.90;;;;;;5152933;27;20132;-42
2023/01/14 07:19:52;;;;;;;;;;;6.20;99.90;;;;;;5152077;27;19911;-42
2023/01/14 07:22:17;;;;;;;;;;;6.20;99.90;;;;;;5154297;27;20358;-42
2023/01/14 07:24:43;;;;;;;;;;;6.30;99.90;;;;;;5139853;27;19912;-42
2023/01/14 07:27:08;;;;;;;;;;;6.30;99.90;;;;;;5132647;28;19915;-42
2023/01/14 07:29:34;;;;;;;;;;;6.30;99.90;;;;;;5142503;27;19911;-42
2023/01/14 07:32:00;;;;;;;;;;;6.30;99.90;;;;;;5137587;27;19969;-42
2023/01/14 07:34:25;;;;;;;;;;;6.30;99.90;;;;;;5152406;27;20369;-43
2023/01/14 07:36:51;;;;;;;;;;;6.30;99.90;;;;;;5131332;27;19920;-42
2023/01/14 07:39:16;;;;;;;;;;;6.40;99.90;;;;;;5121065;27;20374;-43
2023/01/14 07:41:42;;;;;;;;;;;6.40;99.90;;;;;;5118954;27;20002;-42
2023/01/14 07:44:07;;;;;;;;;;;6.40;99.90;;;;;;5128944;27;20388;-42
2023/01/14 07:46:33;;;;;;;;;;;6.40;99.90;;;;;;5116230;28;19908;-43
2023/01/14 07:48:59;;;;;;;;;;;6.40;99.90;;;;;;5134960;27;20106;-42
2023/01/14 07:51:24;;;;;;;;;;;6.40;99.90;;;;;;5148234;27;19955;-44
2023/01/14 07:53:50;;;;;;;;;;;6.50;99.90;;;;;;5135266;27;19919;-43
2023/01/14 07:56:16;;;;;;;;;;;6.50;99.90;;;;;;5136177;27;20670;-42
2023/01/14 07:58:41;;;;;;;;;;;6.50;99.90;;;;;;5143677;27;20002;-44
2023/01/14 08:01:08;;;;;;;;;;;6.50;99.90;;;;;;5143740;27;19970;-42
2023/01/14 08:03:33;;;;;;;;;;;6.50;99.90;;;;;;5145007;27;19961;-43
2023/01/14 08:06:02;;;;;;;;;;;6.50;99.90;;;;;;5145968;27;20363;-43
2023/01/14 08:08:28;;;;;;;;;;;6.50;99.90;;;;;;5137992;27;20346;-42
2023/01/14 08:10:53;;;;;;;;;;;6.60;99.90;;;;;;5143178;27;19907;-43
2023/01/14 08:13:19;;;;;;;;;;;6.60;99.90;;;;;;5136780;27;19911;-42
2023/01/14 08:15:44;;;;;;;;;;;6.60;99.90;;;;;;5133963;27;19918;-43
2023/01/14 08:18:10;;;;;;;;;;;6.60;99.90;;;;;;5136852;27;20319;-43
2023/01/14 08:20:35;;;;;;;;;;;6.60;99.90;;;;;;5149040;27;20010;-43
2023/01/14 08:23:01;;;;;;;;;;;6.60;99.90;;;;;;5135983;27;19934;-43
2023/01/14 08:25:27;;;;;;;;;;;6.60;99.90;;;;;;5127631;27;19954;-42
2023/01/14 08:27:52;;;;;;;;;;;6.60;99.90;;;;;;5137003;27;19953;-42
2023/01/14 08:30:18;;;;;;;;;;;6.60;99.90;;;;;;5135813;27;19919;-42
2023/01/14 08:32:43;;;;;;;;;;;6.60;99.90;;;;;;5136707;27;19960;-43
2023/01/14 08:35:09;;;;;;;;;;;6.60;99.90;;;;;;5146903;27;19972;-42
2023/01/14 08:37:35;;;;;;;;;;;6.60;99.90;;;;;;5148765;27;20005;-44
2023/01/14 08:40:00;;;;;;;;;;;6.60;99.90;;;;;;5144688;27;19907;-43
2023/01/14 08:42:26;;;;;;;;;;;6.60;99.90;;;;;;5136450;27;20331;-43
2023/01/14 08:44:51;;;;;;;;;;;6.70;99.90;;;;;;5135128;27;19914;-43
2023/01/14 08:47:17;;;;;;;;;;;6.60;99.90;;;;;;5136271;27;19908;-43
2023/01/14 08:49:42;;;;;;;;;;;6.70;99.90;;;;;;5136072;27;19908;-44
2023/01/14 08:52:08;;;;;;;;;;;6.60;99.90;;;;;;5140150;27;19931;-43
2023/01/14 08:54:34;;;;;;;;;;;6.60;99.90;;;;;;5148652;27;20387;-43
2023/01/14 08:57:00;;;;;;;;;;;6.60;99.90;;;;;;5134596;27;19953;-44
2023/01/14 08:59:27;;;;;;;;;;;6.60;99.90;;;;;;5135039;27;20313;-43
2023/01/14 09:01:52;;;;;;;;;;;6.60;99.90;;;;;;5135653;27;19954;-43
2023/01/14 09:04:18;;;;;;;;;;;6.60;99.90;;;;;;5135222;27;19907;-43
2023/01/14 09:17:42;;;;;;;;;;;6.60;99.90;;;;;;5134920;27;20285;-43
2023/01/14 09:20:11;;;;;;;;;;;6.60;99.90;;;;;;5134524;27;19908;-43
2023/01/14 09:22:37;;;;;;;;;;;6.60;99.90;;;;;;5134736;27;20373;-43
2023/01/14 09:25:03;;;;;;;;;;;6.70;99.90;;;;;;5134753;27;19907;-43
2023/01/14 09:27:31;;;;;;;;;;;6.70;99.90;;;;;;5135476;27;19908;-42
2023/01/14 09:29:56;;;;;;;;;;;6.70;99.90;;;;;;5134803;27;19916;-43
2023/01/14 09:32:22;;;;;;;;;;;6.70;99.90;;;;;;5134077;27;19907;-44
2023/01/14 09:34:49;;;;;;;;;;;6.70;99.90;;;;;;5155965;27;19911;-43
2023/01/14 09:37:16;;;;;;;;;;;6.70;99.90;;;;;;5156146;27;19927;-42
2023/01/14 09:39:41;;;;;;;;;;;6.70;99.90;;;;;;5155232;27;19991;-43
2023/01/14 09:42:08;;;;;;;;;;;6.70;99.90;;;;;;5143399;27;20400;-43
2023/01/14 09:44:34;;;;;;;;;;;6.70;99.90;;;;;;5135265;27;19912;-42
2023/01/14 09:46:59;;;;;;;;;;;6.80;99.90;;;;;;5134261;27;19998;-42
2023/01/14 09:49:26;;;;;;;;;;;6.80;99.90;;;;;;5136258;27;19946;-45
2023/01/14 09:52:10;;;;;;;;;;;6.80;99.90;;;;;;5145192;27;20277;-43
2023/01/14 09:54:44;;;;;;;;;;;6.80;99.90;;;;;;5133893;27;20010;-42
2023/01/14 09:57:14;;;;;;;;;;;6.80;99.90;;;;;;5153863;27;19923;-42
2023/01/14 09:59:57;;;;;;;;;;;6.80;99.90;;;;;;5155590;27;19906;-42
2023/01/14 10:02:25;;;;;;;;;;;6.80;99.90;;;;;;5154636;27;19963;-43
2023/01/14 10:05:10;;;;;;;;;;;6.90;99.90;;;;;;5145467;27;19911;-42
2023/01/14 10:07:36;;;;;;;;;;;6.90;99.90;;;;;;5124430;27;19912;-42
2023/01/14 10:10:03;;;;;;;;;;;6.90;99.90;;;;;;5133849;27;19915;-42
2023/01/14 10:12:31;;;;;;;;;;;6.90;99.90;;;;;;5113151;28;19907;-42
2023/01/14 10:15:17;;;;;;;;;;;6.90;99.90;;;;;;5116391;27;19912;-41
2023/01/14 10:17:43;;;;;;;;;;;7.00;99.90;;;;;;5084883;27;19915;-41
2023/01/14 10:20:15;;;;;;;;;;;7.00;99.90;;;;;;5132127;27;20354;-43
2023/01/14 10:22:52;;;;;;;;;;;7.00;99.90;;;;;;5132919;27;19907;-41
2023/01/14 10:25:19;;;;;;;;;;;7.00;99.90;;;;;;5133714;27;19915;-41
2023/01/14 10:27:48;;;;;;;;;;;7.00;99.90;;;;;;5142156;27;20282;-41
2023/01/14 10:30:20;;;;;;;;;;;7.10;99.90;;;;;;5152681;27;19907;-41
2023/01/14 10:32:47;;;;;;;;;;;7.10;99.90;;;;;;5146067;27;20157;-40
2023/01/14 10:35:14;;;;;;;;;;;7.10;99.90;;;;;;5115631;27;19994;-43
2023/01/14 10:37:40;;;;;;;;;;;7.10;99.90;;;;;;5110776;28;20378;-40
2023/01/14 10:40:10;;;;;;;;;;;7.10;99.90;;;;;;5110082;28;19908;-40
2023/01/14 10:42:36;;;;;;;;;;;7.20;99.90;;;;;;5109551;28;20338;-39
2023/01/14 10:45:01;;;;;;;;;;;7.20;99.90;;;;;;5111572;28;19952;-40
2023/01/14 10:47:29;;;;;;;;;;;7.20;99.90;;;;;;5128818;27;19922;-39
2023/01/14 10:49:59;;;;;;;;;;;7.30;99.90;;;;;;5131130;27;20358;-38
2023/01/14 10:52:26;;;;;;;;;;;7.30;99.90;;;;;;5132300;27;20362;-39
2023/01/14 10:55:01;;;;;;;;;;;7.20;99.90;;;;;;5133437;27;19919;-40
2023/01/14 10:57:28;;;;;;;;;;;7.30;99.90;;;;;;5133196;27;20378;-40
2023/01/14 10:59:55;;;;;;;;;;;7.40;99.90;;;;;;5133930;27;20393;-39
2023/01/14 11:02:26;;;;;;;;;;;7.40;99.90;;;;;;5133607;27;19915;-40
2023/01/14 11:04:52;;;;;;;;;;;7.50;99.90;;;;;;5132650;27;19950;-41
2023/01/14 11:07:41;;;;;;;;;;;7.40;99.90;;;;;;5140318;27;19956;-39
2023/01/14 11:10:17;;;;;;;;;;;7.50;99.90;;;;;;5141110;27;19917;-41
2023/01/14 11:12:43;;;;;;;;;;;7.60;99.90;;;;;;5153762;27;20254;-40
2023/01/14 11:15:28;;;;;;;;;;;7.60;99.90;;;;;;5154439;27;19913;-39
2023/01/14 11:17:54;;;;;;;;;;;7.70;99.90;;;;;;5153357;27;19922;-40
2023/01/14 11:20:20;;;;;;;;;;;7.70;99.90;;;;;;5154778;27;19907;-39
2023/01/14 11:22:53;;;;;;;;;;;7.70;99.90;;;;;;5154531;27;19970;-40
2023/01/14 11:25:22;;;;;;;;;;;7.70;99.90;;;;;;5153585;27;19930;-39
2023/01/14 11:27:48;;;;;;;;;;;7.70;99.90;;;;;;5154303;27;20376;-39
2023/01/14 11:30:16;;;;;;;;;;;7.70;99.90;;;;;;5146169;27;20006;-39
2023/01/14 11:32:48;;;;;;;;;;;7.70;99.90;;;;;;5132835;28;20358;-40
2023/01/14 11:35:22;;;;;;;;;;;7.70;99.90;;;;;;5133576;28;19911;-40
2023/01/14 11:37:48;;;;;;;;;;;7.70;99.90;;;;;;5133477;28;19958;-40
2023/01/14 11:43:19;;;;;;;;;;;7.70;99.90;;;;;;5133770;28;20307;-40
2023/01/14 11:45:45;;;;;;;;;;;7.70;99.90;;;;;;5132730;28;19911;-40
2023/01/14 11:48:22;;;;;;;;;;;7.70;99.90;;;;;;5133381;28;19968;-40
2023/01/14 11:50:58;;;;;;;;;;;7.80;99.90;;;;;;5134325;27;20429;-40
2023/01/14 11:53:26;;;;;;;;;;;7.80;99.90;;;;;;5132599;28;19915;-40
2023/01/14 11:55:55;;;;;;;;;;;7.80;99.90;;;;;;5133160;28;19923;-40
2023/01/14 11:58:29;;;;;;;;;;;7.80;99.90;;;;;;5133297;28;20461;-38
2023/01/14 12:01:01;;;;;;;;;;;7.80;99.90;;;;;;5132499;28;19949;-38
2023/01/14 12:03:33;;;;;;;;;;;7.80;99.90;;;;;;5133215;28;19911;-38
2023/01/14 12:05:59;;;;;;;;;;;7.80;99.90;;;;;;5133284;28;20366;-39
2023/01/14 12:08:27;;;;;;;;;;;7.80;99.90;;;;;;5132527;28;19914;-39
2023/01/14 12:10:57;;;;;;;;;;;7.80;99.90;;;;;;5133268;28;19907;-38
2023/01/14 12:19:02;;;;;;;;;;;7.80;99.90;;;;;;5158178;27;19953;-38
2023/01/14 12:21:31;;;;;;;;;;;7.90;99.90;;;;;;5157053;27;19955;-39
2023/01/14 12:24:02;;;;;;;;;;;7.90;99.90;;;;;;5157708;27;20358;-39
2023/01/14 12:26:34;;;;;;;;;;;7.90;99.90;;;;;;5157692;27;19907;-39
2023/01/14 12:29:02;;;;;;;;;;;7.90;99.90;;;;;;5156836;27;19907;-39
2023/01/14 12:31:33;;;;;;;;;;;8.00;99.90;;;;;;5157505;27;20382;-39
2023/01/14 12:34:10;;;;;;;;;;;8.00;99.90;;;;;;5157416;27;20354;-38
2023/01/14 12:36:38;;;;;;;;;;;8.00;99.90;;;;;;5156598;27;19994;-39
2023/01/14 12:47:32;;;;;;;;;;;8.10;99.90;;;;;;5136844;27;19914;-38
2023/01/14 12:49:57;;;;;;;;;;;8.20;99.90;;;;;;5135886;27;19911;-39
2023/01/14 12:52:25;;;;;;;;;;;8.20;99.90;;;;;;5136385;27;19911;-38
2023/01/14 12:54:51;;;;;;;;;;;8.20;99.90;;;;;;5136200;27;19926;-39
2023/01/14 12:57:20;;;;;;;;;;;8.20;99.90;;;;;;5135495;27;20010;-38
2023/01/14 12:59:51;;;;;;;;;;;8.30;99.90;;;;;;5136256;27;20346;-39
2023/01/14 13:02:37;;;;;;;;;;;8.30;99.90;;;;;;5136276;27;19911;-39
2023/01/14 13:05:05;;;;;;;;;;;8.30;99.90;;;;;;5138034;27;19911;-39
2023/01/14 13:07:33;;;;;;;;;;;8.40;99.90;;;;;;5156751;27;19950;-39
2023/01/14 13:10:00;;;;;;;;;;;8.40;99.90;;;;;;5156165;27;19914;-39
2023/01/14 13:12:30;;;;;;;;;;;8.50;99.90;;;;;;5156737;27;20386;-38
2023/01/14 13:15:07;;;;;;;;;;;8.50;99.90;;;;;;5156309;27;19911;-38
2023/01/14 13:17:39;;;;;;;;;;;8.50;99.90;;;;;;5155874;27;19950;-39
2023/01/14 13:20:20;;;;;;;;;;;8.50;99.90;;;;;;5156529;27;19907;-38
2023/01/14 13:22:52;;;;;;;;;;;8.50;99.90;;;;;;5156646;27;20109;-39
2023/01/14 13:25:19;;;;;;;;;;;8.60;99.90;;;;;;5155604;27;20014;-39
2023/01/14 13:27:46;;;;;;;;;;;8.60;99.90;;;;;;5155734;27;19907;-39
2023/01/14 13:30:17;;;;;;;;;;;8.60;99.90;;;;;;5143204;27;19918;-38
2023/01/14 13:32:52;;;;;;;;;;;8.70;99.90;;;;;;5134912;27;19938;-39
2023/01/14 13:35:19;;;;;;;;;;;8.70;99.90;;;;;;5135632;27;19998;-38
2023/01/14 13:37:45;;;;;;;;;;;8.70;99.90;;;;;;5135484;27;19992;-38
2023/01/14 13:40:36;;;;;;;;;;;8.80;99.90;;;;;;5134621;27;20346;-39
2023/01/14 13:43:05;;;;;;;;;;;8.80;99.90;;;;;;5125199;27;19912;-38
2023/01/14 13:45:35;;;;;;;;;;;8.90;99.90;;;;;;5134600;27;19926;-38
2023/01/14 13:48:33;;;;;;;;;;;8.90;99.90;;;;;;5135235;27;19908;-38
2023/01/14 13:51:17;;;;;;;;;;;9.00;99.90;;;;;;5089166;27;19951;-38
2023/01/14 13:53:53;;;;;;;;;;;9.00;99.90;;;;;;5134470;27;19935;-39
2023/01/14 13:56:20;;;;;;;;;;;9.10;99.90;;;;;;5143023;27;19978;-39
2023/01/14 13:58:48;;;;;;;;;;;9.10;99.90;;;;;;5155913;27;19911;-40
2023/01/14 14:01:28;;;;;;;;;;;9.10;99.90;;;;;;5155069;27;19910;-39
2023/01/14 14:03:54;;;;;;;;;;;9.20;99.90;;;;;;5155612;27;19950;-38
2023/01/14 14:06:35;;;;;;;;;;;9.20;99.90;;;;;;5154971;27;19914;-39
2023/01/14 14:09:10;;;;;;;;;;;9.30;99.90;;;;;;5155615;27;20005;-39
2023/01/14 14:11:40;;;;;;;;;;;9.30;99.90;;;;;;5155671;27;19907;-39
2023/01/14 14:14:07;;;;;;;;;;;9.40;99.90;;;;;;5154675;27;19994;-39
2023/01/14 14:16:37;;;;;;;;;;;9.40;99.90;;;;;;5142331;27;20274;-39
2023/01/14 14:19:09;;;;;;;;;;;9.40;99.90;;;;;;5134591;27;19918;-40
2023/01/14 14:21:53;;;;;;;;;;;9.40;99.90;;;;;;5133892;27;19907;-38
2023/01/14 14:24:22;;;;;;;;;;;9.40;99.90;;;;;;5134398;27;20335;-39
2023/01/14 14:26:49;;;;;;;;;;;9.50;99.90;;;;;;5134458;27;19914;-38
2023/01/14 14:29:16;;;;;;;;;;;9.50;99.90;;;;;;5133716;27;19908;-38
2023/01/14 14:31:43;;;;;;;;;;;9.50;99.90;;;;;;5132770;27;19907;-39
2023/01/14 14:34:22;;;;;;;;;;;9.50;99.90;;;;;;5113530;28;19915;-39
2023/01/14 14:36:52;;;;;;;;;;;9.50;99.90;;;;;;5124361;27;19919;-39
2023/01/14 14:39:19;;;;;;;;;;;9.50;99.90;;;;;;5123491;27;19916;-39
2023/01/14 14:41:45;;;;;;;;;;;9.50;99.90;;;;;;5130108;27;20011;-39
2023/01/14 14:44:20;;;;;;;;;;;9.50;99.90;;;;;;5127183;27;19919;-38
2023/01/14 14:46:46;;;;;;;;;;;9.60;99.90;;;;;;5122797;27;20010;-40
2023/01/14 14:49:19;;;;;;;;;;;9.60;99.90;;;;;;5133258;27;20425;-39
2023/01/14 14:51:45;;;;;;;;;;;9.60;99.90;;;;;;5126083;27;19912;-39
2023/01/14 14:54:24;;;;;;;;;;;9.60;99.90;;;;;;5120535;27;19919;-38
2023/01/14 14:56:50;;;;;;;;;;;9.60;99.90;;;;;;5134228;27;20259;-39
2023/01/14 14:59:16;;;;;;;;;;;9.60;99.90;;;;;;5154674;27;19914;-38
2023/01/14 15:01:41;;;;;;;;;;;9.60;99.90;;;;;;5147013;27;20286;-38
2023/01/14 15:04:15;;;;;;;;;;;9.70;99.90;;;;;;5133017;27;19916;-39
2023/01/14 15:06:40;;;;;;;;;;;9.70;99.90;;;;;;5133339;27;19955;-38
2023/01/14 15:09:09;;;;;;;;;;;9.70;99.90;;;;;;5133711;27;19943;-39
2023/01/14 15:11:43;;;;;;;;;;;9.70;99.90;;;;;;5133011;27;20362;-39
2023/01/14 15:14:25;;;;;;;;;;;9.70;99.90;;;;;;5133482;27;19908;-38
2023/01/14 15:16:52;;;;;;;;;;;9.70;99.90;;;;;;5132505;27;19983;-39
2023/01/14 15:19:18;;;;;;;;;;;9.70;99.90;;;;;;5133678;28;20401;-38
2023/01/14 15:21:44;;;;;;;;;;;9.70;99.90;;;;;;5133550;27;19951;-38